Aviation Digital Data Service (ADDS)

Output produced by TAFs form (1941 UTC 01 February 2015)
found at http://www.aviationweather.gov/adds/tafs/
 
KRIC 011730Z 0118/0218 18008KT P6SM SCT070 BKN100 
     FM020600 19010G20KT 5SM -RA BR BKN025 OVC040 
     FM020900 21010G20KT 5SM -RA BR OVC007 
     FM021500 26012KT P6SM BKN025